createdAt,value
2019-04-25T00:02:27.371Z,40.69
2019-04-25T00:05:08.643Z,40.26
2019-04-25T00:07:48.632Z,40.16
2019-04-25T00:10:24.446Z,40.33
2019-04-25T00:13:03.774Z,39.96
2019-04-25T00:15:35.358Z,40.10
2019-04-25T00:18:12.716Z,40.55
2019-04-25T00:20:57.494Z,40.56
2019-04-25T00:23:31.767Z,40.19
2019-04-25T00:26:22.233Z,40.47
2019-04-25T00:28:56.280Z,40.36
2019-04-25T00:31:28.912Z,40.80
2019-04-25T00:34:02.182Z,41.02
2019-04-25T00:36:34.074Z,41.14
2019-04-25T00:39:07.295Z,40.96
2019-04-25T00:41:39.342Z,41.15
2019-04-25T00:44:12.106Z,41.17
2019-04-25T00:46:47.808Z,41.09
2019-04-25T00:49:16.919Z,40.96
2019-04-25T00:51:50.730Z,41.02
2019-04-25T00:54:23.451Z,41.38
2019-04-25T00:56:55.265Z,41.08
2019-04-25T00:59:37.317Z,41.21
2019-04-25T01:02:11.468Z,41.07
2019-04-25T01:04:43.730Z,41.22
2019-04-25T01:07:16.374Z,41.22
2019-04-25T01:09:49.973Z,41.09
2019-04-25T01:12:22.309Z,41.12
2019-04-25T01:14:54.738Z,41.52
2019-04-25T01:17:26.487Z,41.33
2019-04-25T01:19:58.152Z,41.55
2019-04-25T01:22:29.801Z,41.28
2019-04-25T01:25:01.451Z,41.36
2019-04-25T01:27:33.335Z,41.48
2019-04-25T01:30:07.157Z,41.26
2019-04-25T01:32:39.196Z,41.04
2019-04-25T01:35:14.004Z,41.44
2019-04-25T01:37:47.491Z,41.56
2019-04-25T01:40:37.327Z,41.65
2019-04-25T01:43:26.922Z,41.67
2019-04-25T01:45:58.562Z,41.93
2019-04-25T01:48:30.080Z,41.97
2019-04-25T01:51:01.602Z,41.88
2019-04-25T01:53:33.949Z,42.00
2019-04-25T01:56:07.843Z,42.36
2019-04-25T01:58:40.983Z,42.64
2019-04-25T02:01:14.330Z,42.57
2019-04-25T02:03:46.231Z,42.41
2019-04-25T02:06:18.548Z,42.68
2019-04-25T02:08:50.879Z,42.44
2019-04-25T02:11:34.771Z,42.52
2019-04-25T02:14:07.149Z,42.91
2019-04-25T02:16:38.694Z,43.20
2019-04-25T02:19:31.387Z,43.54
2019-04-25T02:22:04.034Z,43.61
2019-04-25T02:24:35.560Z,43.52
2019-04-25T02:27:07.480Z,43.56
2019-04-25T02:29:39.194Z,43.68
2019-04-25T02:32:11.268Z,43.45
2019-04-25T02:34:45.263Z,43.52
2019-04-25T02:37:16.013Z,43.55
2019-04-25T02:39:47.633Z,43.66
2019-04-25T02:42:19.264Z,43.63
2019-04-25T02:44:54.731Z,43.82
2019-04-25T02:47:29.917Z,43.89
2019-04-25T02:50:07.093Z,43.85
2019-04-25T02:52:41.004Z,43.85
2019-04-25T02:55:28.029Z,43.97
2019-04-25T02:57:45.857Z,44.44
2019-04-25T03:00:24.859Z,44.33
2019-04-25T03:02:57.933Z,44.56
2019-04-25T03:05:30.143Z,44.43
2019-04-25T03:08:05.384Z,44.58
2019-04-25T03:10:35.439Z,44.41
2019-04-25T03:13:11.454Z,44.40
2019-04-25T03:15:40.561Z,44.57
2019-04-25T03:18:15.187Z,44.56
2019-04-25T03:20:51.100Z,44.68
2019-04-25T03:23:30.585Z,44.59
2019-04-25T03:26:04.771Z,44.85
2019-04-25T03:28:36.924Z,44.64
2019-04-25T03:31:14.042Z,44.53
2019-04-25T03:33:45.052Z,44.28
2019-04-25T03:36:17.087Z,44.51
2019-04-25T03:38:48.248Z,44.53
2019-04-25T03:41:20.710Z,44.59
2019-04-25T03:43:52.231Z,44.48
2019-04-25T03:46:24.048Z,44.53
2019-04-25T03:48:55.852Z,44.66
2019-04-25T03:51:27.370Z,44.58
2019-04-25T03:53:59.128Z,44.55
2019-04-25T03:56:31.086Z,44.60
2019-04-25T03:59:05.815Z,44.70
2019-04-25T04:01:37.330Z,44.69
2019-04-25T04:04:09.069Z,45.16
2019-04-25T04:06:46.270Z,45.02
2019-04-25T04:09:18.529Z,44.84
2019-04-25T04:11:50.825Z,45.14
2019-04-25T04:14:24.436Z,45.27
2019-04-25T04:17:10.914Z,45.24
2019-04-25T04:19:56.651Z,45.48
2019-04-25T04:22:39.534Z,45.18
2019-04-25T04:25:13.884Z,45.45
2019-04-25T04:27:46.319Z,45.97
2019-04-25T04:30:18.630Z,45.80
2019-04-25T04:32:53.585Z,45.69
2019-04-25T04:35:35.256Z,45.69
2019-04-25T04:38:08.140Z,45.72
2019-04-25T04:40:40.590Z,45.27
2019-04-25T04:43:12.230Z,45.33
2019-04-25T04:45:45.640Z,45.09
2019-04-25T04:48:17.497Z,45.23
2019-04-25T04:50:48.895Z,44.98
2019-04-25T04:53:20.594Z,44.84
2019-04-25T04:55:54.371Z,44.75
2019-04-25T04:58:26.685Z,44.46
2019-04-25T05:00:58.319Z,44.17
2019-04-25T05:03:43.995Z,43.70
2019-04-25T05:06:17.430Z,43.55
2019-04-25T05:08:53.231Z,43.36
2019-04-25T05:11:25.530Z,43.52
2019-04-25T05:13:57.165Z,43.33
2019-04-25T05:16:30.442Z,43.50
2019-04-25T05:19:03.723Z,43.08
2019-04-25T05:21:39.607Z,42.76
2019-04-25T05:24:16.415Z,43.15
2019-04-25T05:26:50.651Z,41.74
2019-04-25T05:29:24.144Z,42.07
2019-04-25T05:31:59.066Z,41.79
2019-04-25T05:34:30.828Z,42.03
2019-04-25T05:37:05.031Z,41.79
2019-04-25T05:39:39.292Z,41.89
2019-04-25T05:42:20.329Z,42.19
2019-04-25T05:44:51.941Z,41.89
2019-04-25T05:47:26.054Z,42.37
2019-04-25T05:49:57.592Z,42.27
2019-04-25T05:52:30.125Z,42.04
2019-04-25T05:55:01.718Z,42.01
2019-04-25T05:57:45.631Z,41.47
2019-04-25T06:00:10.742Z,41.41
2019-04-25T06:02:42.190Z,41.74
2019-04-25T06:08:07.204Z,40.36
2019-04-25T06:10:48.680Z,40.32
2019-04-25T06:13:30.667Z,39.68
2019-04-25T06:16:09.331Z,39.51
2019-04-25T06:18:44.061Z,39.74
2019-04-25T06:21:18.152Z,39.41
2019-04-25T06:23:57.711Z,39.09
2019-04-25T06:26:35.370Z,38.73
2019-04-25T06:29:03.313Z,38.64
2019-04-25T06:31:35.652Z,38.49
2019-04-25T06:34:10.746Z,38.15
2019-04-25T06:36:42.238Z,38.27
2019-04-25T06:39:14.251Z,37.39
2019-04-25T06:41:45.956Z,37.82
2019-04-25T06:44:34.417Z,37.33
2019-04-25T06:47:15.199Z,37.33
2019-04-25T06:49:46.628Z,36.78
2019-04-25T06:52:18.073Z,37.46
2019-04-25T06:54:49.617Z,37.05
2019-04-25T06:57:22.165Z,37.02
2019-04-25T06:59:53.745Z,36.19
2019-04-25T07:02:27.051Z,35.07
2019-04-25T07:04:58.597Z,36.00
2019-04-25T07:07:34.200Z,36.05
2019-04-25T07:10:09.181Z,35.83
2019-04-25T07:12:41.529Z,36.39
2019-04-25T07:15:14.742Z,36.06
2019-04-25T07:17:46.700Z,35.82
2019-04-25T07:20:21.578Z,34.54
2019-04-25T07:22:53.718Z,34.92
2019-04-25T07:25:27.742Z,35.13
2019-04-25T07:28:22.212Z,34.86
2019-04-25T07:30:57.014Z,34.95
2019-04-25T07:33:37.341Z,34.29
2019-04-25T07:36:10.912Z,34.34
2019-04-25T07:38:47.377Z,34.19
2019-04-25T07:41:19.522Z,34.15
2019-04-25T07:43:53.299Z,33.34
2019-04-25T07:46:29.803Z,33.25
2019-04-25T07:49:03.483Z,34.36
2019-04-25T07:51:35.568Z,34.06
2019-04-25T07:54:07.788Z,33.07
2019-04-25T07:56:39.441Z,32.74
2019-04-25T07:59:11.003Z,33.99
2019-04-25T08:02:07.893Z,33.18
2019-04-25T08:04:41.702Z,32.48
2019-04-25T08:07:15.438Z,33.70
2019-04-25T08:09:47.069Z,32.17
2019-04-25T08:12:19.728Z,32.13
2019-04-25T08:15:00.532Z,32.73
2019-04-25T08:17:50.242Z,31.92
2019-04-25T08:20:24.214Z,31.01
2019-04-25T08:22:59.001Z,31.51
2019-04-25T08:25:33.485Z,31.06
2019-04-25T08:28:05.038Z,30.83
2019-04-25T08:30:37.035Z,30.12
2019-04-25T08:33:11.439Z,30.80
2019-04-25T08:36:02.969Z,30.50
2019-04-25T08:38:17.002Z,31.26
2019-04-25T08:40:48.976Z,29.23
2019-04-25T08:43:20.621Z,30.83
2019-04-25T08:45:55.828Z,29.31
2019-04-25T08:48:30.483Z,29.11
2019-04-25T08:51:06.006Z,29.24
2019-04-25T08:53:54.506Z,28.37
2019-04-25T08:56:28.260Z,28.35
2019-04-25T08:59:08.225Z,28.46
2019-04-25T09:01:49.334Z,28.71
2019-04-25T09:04:42.628Z,28.60
2019-04-25T09:07:15.568Z,29.06
2019-04-25T09:09:49.726Z,28.11
2019-04-25T09:12:21.522Z,28.69
2019-04-25T09:14:54.192Z,26.86
2019-04-25T09:17:29.071Z,26.74
2019-04-25T09:20:01.891Z,28.16
2019-04-25T09:22:39.939Z,27.06
2019-04-25T09:25:16.288Z,27.07
2019-04-25T09:27:51.164Z,27.08
2019-04-25T09:30:27.356Z,27.74
2019-04-25T09:33:10.961Z,26.06
2019-04-25T09:35:45.982Z,25.95
2019-04-25T09:38:20.541Z,26.01
2019-04-25T09:40:54.200Z,25.43
2019-04-25T09:43:26.001Z,24.73
2019-04-25T09:46:00.278Z,24.83
2019-04-25T09:48:46.826Z,25.47
2019-04-25T09:51:23.577Z,25.12
2019-04-25T09:53:57.224Z,25.13
2019-04-25T09:56:31.486Z,24.73
2019-04-25T09:59:07.493Z,24.32
2019-04-25T10:01:40.186Z,24.64
2019-04-25T10:04:12.137Z,25.04
2019-04-25T10:06:46.047Z,23.56
2019-04-25T10:09:18.077Z,23.50
2019-04-25T10:11:49.580Z,23.81
2019-04-25T10:14:37.655Z,23.04
2019-04-25T10:17:09.527Z,23.16
2019-04-25T10:19:41.203Z,23.77
2019-04-25T10:22:13.682Z,21.74
2019-04-25T10:24:59.925Z,21.08
2019-04-25T10:27:20.775Z,20.28
2019-04-25T10:29:56.532Z,20.08
2019-04-25T10:32:26.323Z,20.22
2019-04-25T10:34:59.355Z,19.29
2019-04-25T10:37:30.807Z,19.16
2019-04-25T10:40:04.328Z,18.93
2019-04-25T10:42:36.957Z,19.24
2019-04-25T10:45:22.907Z,18.06
2019-04-25T10:47:46.801Z,18.28
2019-04-25T10:53:26.844Z,18.02
2019-04-25T10:56:00.101Z,18.43
2019-04-25T10:58:33.472Z,17.08
2019-04-25T11:01:06.442Z,18.26
2019-04-25T11:03:40.760Z,18.35
2019-04-25T11:06:15.043Z,18.25
2019-04-25T11:08:47.564Z,18.43
2019-04-25T11:11:21.651Z,17.95
2019-04-25T11:13:55.939Z,16.71
2019-04-25T11:16:28.310Z,17.20
2019-04-25T11:18:59.872Z,17.84
2019-04-25T11:21:33.214Z,17.99
2019-04-25T11:24:05.507Z,17.78
2019-04-25T11:26:38.909Z,16.65
2019-04-25T11:29:11.504Z,16.93
2019-04-25T11:31:45.940Z,17.02
2019-04-25T11:34:20.611Z,16.83
2019-04-25T11:36:55.680Z,16.67
2019-04-25T11:39:40.638Z,17.09
2019-04-25T11:42:13.110Z,17.92
2019-04-25T11:44:45.450Z,16.46
2019-04-25T11:47:18.193Z,17.33
2019-04-25T11:49:54.196Z,16.92
2019-04-25T11:52:28.145Z,17.16
2019-04-25T11:54:59.341Z,16.75
2019-04-25T11:57:32.843Z,16.01
2019-04-25T12:00:21.599Z,16.88
2019-04-25T12:02:49.719Z,17.06
2019-04-25T12:05:23.581Z,16.50
2019-04-25T12:07:55.473Z,17.06
2019-04-25T12:10:28.487Z,16.47
2019-04-25T12:13:01.225Z,16.84
2019-04-25T12:15:33.824Z,16.10
2019-04-25T12:18:05.565Z,15.62
2019-04-25T12:20:37.247Z,16.27
2019-04-25T12:23:10.565Z,16.74
2019-04-25T12:25:42.302Z,15.59
2019-04-25T12:28:16.821Z,15.70
2019-04-25T12:30:54.950Z,16.74
2019-04-25T12:33:29.345Z,16.52
2019-04-25T12:36:06.232Z,16.28
2019-04-25T12:38:41.435Z,17.28
2019-04-25T12:41:13.511Z,16.33
2019-04-25T12:44:08.863Z,16.69
2019-04-25T12:46:43.611Z,17.43
2019-04-25T12:49:16.216Z,16.96
2019-04-25T12:51:50.375Z,17.19
2019-04-25T12:54:23.881Z,17.10
2019-04-25T12:56:57.262Z,16.85
2019-04-25T12:59:33.018Z,17.18
2019-04-25T13:02:17.169Z,16.40
2019-04-25T13:04:50.720Z,16.15
2019-04-25T13:07:30.335Z,16.51
2019-04-25T13:10:05.827Z,16.74
2019-04-25T13:12:40.071Z,16.85
2019-04-25T13:15:15.634Z,16.84
2019-04-25T13:17:48.586Z,16.37
2019-04-25T13:20:20.575Z,17.12
2019-04-25T13:22:53.854Z,17.27
2019-04-25T13:25:25.477Z,17.74
2019-04-25T13:28:07.144Z,17.23
2019-04-25T13:31:07.493Z,17.36
2019-04-25T13:33:39.814Z,16.95
2019-04-25T13:36:13.441Z,17.01
2019-04-25T13:38:45.268Z,17.32
2019-04-25T13:41:18.520Z,18.01
2019-04-25T13:43:50.327Z,17.53
2019-04-25T13:46:26.113Z,18.23
2019-04-25T13:48:59.331Z,18.62
2019-04-25T13:51:30.776Z,20.74
2019-04-25T13:54:01.964Z,20.61
2019-04-25T13:56:40.403Z,21.60
2019-04-25T13:59:10.599Z,21.86
2019-04-25T14:01:51.135Z,22.24
2019-04-25T14:04:26.989Z,22.59
2019-04-25T14:06:59.619Z,22.29
2019-04-25T14:09:36.749Z,22.00
2019-04-25T14:12:27.599Z,22.08
2019-04-25T14:14:58.836Z,22.65
2019-04-25T14:17:41.346Z,21.88
2019-04-25T14:20:27.956Z,20.09
2019-04-25T14:23:00.008Z,20.09
2019-04-25T14:25:33.193Z,20.32
2019-04-25T14:28:06.920Z,20.87
2019-04-25T14:30:38.984Z,21.57
2019-04-25T14:33:13.444Z,22.49
2019-04-25T14:35:47.603Z,22.63
2019-04-25T14:38:26.593Z,22.85
2019-04-25T14:41:00.420Z,23.57
2019-04-25T14:43:32.030Z,23.74
2019-04-25T14:46:04.153Z,23.40
2019-04-25T14:48:37.122Z,22.86
2019-04-25T14:51:12.059Z,22.67
2019-04-25T14:53:43.793Z,23.05
2019-04-25T14:56:17.133Z,22.60
2019-04-25T14:58:49.125Z,22.65
2019-04-25T15:01:22.710Z,22.73
2019-04-25T15:03:55.939Z,21.44
2019-04-25T15:06:27.756Z,21.59
2019-04-25T15:09:00.068Z,22.01
2019-04-25T15:11:34.209Z,23.11
2019-04-25T15:14:07.066Z,23.15
2019-04-25T15:16:41.621Z,23.53
2019-04-25T15:19:15.204Z,23.95
2019-04-25T15:21:46.831Z,24.32
2019-04-25T15:24:18.573Z,24.47
2019-04-25T15:26:51.317Z,24.83
2019-04-25T15:29:24.358Z,25.15
2019-04-25T15:31:56.941Z,26.21
2019-04-25T15:34:36.134Z,26.23
2019-04-25T15:37:13.067Z,26.02
2019-04-25T15:39:49.035Z,25.76
2019-04-25T15:42:31.953Z,26.25
2019-04-25T15:45:13.348Z,25.88
2019-04-25T15:47:45.666Z,26.07
2019-04-25T15:50:17.630Z,25.68
2019-04-25T15:52:53.790Z,26.72
2019-04-25T15:55:26.221Z,26.53
2019-04-25T15:58:00.530Z,26.83
2019-04-25T16:00:35.754Z,26.47
2019-04-25T16:03:08.496Z,26.81
2019-04-25T16:05:40.315Z,26.71
2019-04-25T16:08:13.939Z,27.32
2019-04-25T16:10:46.087Z,27.34
2019-04-25T16:13:20.825Z,28.36
2019-04-25T16:15:53.149Z,28.13
2019-04-25T16:18:24.702Z,28.21
2019-04-25T16:20:56.305Z,27.87
2019-04-25T16:23:30.194Z,27.83
2019-04-25T16:26:03.699Z,28.01
2019-04-25T16:28:36.055Z,28.06
2019-04-25T16:31:09.480Z,28.59
2019-04-25T16:33:42.139Z,28.56
2019-04-25T16:36:15.425Z,28.56
2019-04-25T16:38:47.212Z,29.04
2019-04-25T16:41:22.482Z,29.81
2019-04-25T16:43:55.724Z,29.67
2019-04-25T16:46:36.212Z,29.62
2019-04-25T16:49:08.657Z,29.77
2019-04-25T16:51:46.386Z,29.95
2019-04-25T16:54:18.082Z,30.50
2019-04-25T16:56:50.694Z,30.89
2019-04-25T16:59:22.578Z,31.07
2019-04-25T17:01:56.210Z,31.73
2019-04-25T17:04:29.705Z,31.80
2019-04-25T17:07:02.472Z,32.35
2019-04-25T17:09:35.976Z,32.58
2019-04-25T17:12:14.764Z,33.02
2019-04-25T17:14:53.824Z,33.22
2019-04-25T17:17:45.480Z,33.43
2019-04-25T17:20:18.739Z,33.70
2019-04-25T17:22:50.633Z,33.33
2019-04-25T17:25:25.467Z,33.74
2019-04-25T17:27:57.010Z,33.98
2019-04-25T17:30:32.580Z,33.91
2019-04-25T17:33:11.970Z,34.55
2019-04-25T17:35:59.548Z,34.45
2019-04-25T17:38:53.257Z,34.77
2019-04-25T17:41:25.034Z,35.74
2019-04-25T17:43:56.912Z,35.85
2019-04-25T17:46:29.273Z,35.83
2019-04-25T17:49:03.141Z,36.05
2019-04-25T17:51:35.117Z,36.50
2019-04-25T17:54:07.043Z,37.08
2019-04-25T17:56:40.952Z,37.76
2019-04-25T17:59:12.477Z,38.11
2019-04-25T18:01:44.388Z,38.00
2019-04-25T18:04:19.297Z,38.93
2019-04-25T18:06:51.067Z,37.38
2019-04-25T18:09:23.920Z,36.13
2019-04-25T18:11:57.071Z,36.61
2019-04-25T18:14:35.175Z,36.38
2019-04-25T18:17:08.617Z,36.20
2019-04-25T18:19:51.166Z,36.20
2019-04-25T18:22:24.448Z,35.95
2019-04-25T18:25:13.168Z,35.66
2019-04-25T18:27:55.620Z,35.64
2019-04-25T18:30:27.446Z,35.85
2019-04-25T18:33:15.801Z,36.22
2019-04-25T18:35:49.315Z,35.96
2019-04-25T18:38:29.045Z,35.96
2019-04-25T18:41:06.834Z,36.07
2019-04-25T18:43:49.366Z,36.29
2019-04-25T18:46:22.679Z,36.35
2019-04-25T18:48:55.241Z,36.49
2019-04-25T18:51:29.445Z,36.81
2019-04-25T18:54:02.538Z,36.54
2019-04-25T18:56:43.198Z,37.07
2019-04-25T18:59:19.285Z,36.45
2019-04-25T19:01:56.496Z,36.64
2019-04-25T19:04:39.565Z,36.67
2019-04-25T19:07:22.163Z,36.61
2019-04-25T19:09:45.592Z,36.77
2019-04-25T19:12:17.264Z,37.14
2019-04-25T19:14:48.913Z,37.64
2019-04-25T19:17:20.728Z,37.88
2019-04-25T19:19:52.661Z,37.68
2019-04-25T19:22:26.204Z,37.85
2019-04-25T19:24:57.751Z,37.96
2019-04-25T19:27:29.991Z,38.18
2019-04-25T19:30:02.506Z,38.23
2019-04-25T19:32:35.598Z,38.46
2019-04-25T19:35:07.753Z,38.09
2019-04-25T19:37:39.532Z,37.82
2019-04-25T19:40:30.415Z,37.89
2019-04-25T19:43:10.828Z,38.16
2019-04-25T19:45:43.136Z,37.95
2019-04-25T19:48:16.370Z,38.07
2019-04-25T19:50:48.084Z,38.23
2019-04-25T19:53:32.732Z,38.30
2019-04-25T19:56:06.488Z,38.37
2019-04-25T19:58:47.425Z,38.37
2019-04-25T20:01:21.069Z,38.79
2019-04-25T20:04:12.886Z,38.92
2019-04-25T20:07:02.745Z,38.89
2019-04-25T20:09:42.345Z,38.67
2019-04-25T20:12:18.795Z,38.49
2019-04-25T20:14:54.094Z,38.56
2019-04-25T20:17:25.933Z,38.74
2019-04-25T20:19:57.843Z,38.71
2019-04-25T20:22:35.309Z,38.68
2019-04-25T20:25:10.496Z,37.69
2019-04-25T20:27:42.207Z,37.94
2019-04-25T20:30:15.572Z,37.74
2019-04-25T20:32:47.858Z,38.30
2019-04-25T20:35:19.465Z,38.67
2019-04-25T20:37:51.233Z,39.35
2019-04-25T20:40:23.870Z,39.99
2019-04-25T20:42:56.554Z,41.37
2019-04-25T20:45:31.742Z,41.29
2019-04-25T20:48:03.303Z,40.83
2019-04-25T20:50:35.225Z,40.40
2019-04-25T20:53:07.374Z,40.60
2019-04-25T20:55:39.433Z,41.02
2019-04-25T20:58:11.448Z,40.35
2019-04-25T21:00:45.416Z,39.89
2019-04-25T21:03:16.882Z,39.73
2019-04-25T21:05:50.998Z,39.09
2019-04-25T21:08:24.605Z,39.26
2019-04-25T21:10:57.744Z,38.91
2019-04-25T21:13:31.167Z,38.86
2019-04-25T21:16:04.712Z,38.81
2019-04-25T21:18:38.041Z,38.89
2019-04-25T21:21:09.662Z,38.76
2019-04-25T21:23:42.009Z,38.56
2019-04-25T21:26:13.927Z,38.75
2019-04-25T21:28:46.480Z,38.61
2019-04-25T21:31:18.203Z,38.35
2019-04-25T21:33:50.758Z,38.67
2019-04-25T21:36:23.698Z,38.54
2019-04-25T21:38:55.716Z,38.43
2019-04-25T21:41:38.396Z,38.74
2019-04-25T21:44:10.452Z,38.88
2019-04-25T21:46:45.900Z,38.61
2019-04-25T21:49:17.972Z,38.54
2019-04-25T21:51:51.095Z,38.41
2019-04-25T21:54:22.836Z,38.58
2019-04-25T21:56:57.430Z,38.64
2019-04-25T21:59:29.302Z,38.82
2019-04-25T22:02:00.924Z,39.05
2019-04-25T22:04:40.352Z,38.72
2019-04-25T22:07:06.212Z,38.90
2019-04-25T22:09:38.111Z,38.90
2019-04-25T22:12:12.152Z,39.02
2019-04-25T22:14:43.982Z,38.86
2019-04-25T22:17:15.708Z,38.76
2019-04-25T22:19:48.729Z,38.81
2019-04-25T22:22:22.201Z,38.63
2019-04-25T22:24:54.186Z,38.46
2019-04-25T22:27:27.529Z,38.57
2019-04-25T22:29:59.942Z,38.65
2019-04-25T22:32:33.595Z,39.19
2019-04-25T22:35:08.231Z,39.15
2019-04-25T22:37:39.815Z,39.08
2019-04-25T22:40:11.794Z,39.05
2019-04-25T22:42:43.860Z,38.69
2019-04-25T22:45:15.617Z,38.60
2019-04-25T22:47:48.501Z,38.59
2019-04-25T22:50:20.592Z,38.37
2019-04-25T22:52:54.465Z,38.38
2019-04-25T22:55:34.161Z,38.59
2019-04-25T22:58:06.584Z,38.76
2019-04-25T23:00:39.143Z,38.64
2019-04-25T23:03:14.422Z,38.91
2019-04-25T23:05:53.630Z,38.88
2019-04-25T23:08:26.535Z,39.03
2019-04-25T23:10:59.124Z,39.15
2019-04-25T23:13:31.145Z,39.58
2019-04-25T23:16:05.050Z,39.54
2019-04-25T23:18:36.637Z,39.66
2019-04-25T23:21:08.552Z,39.68
2019-04-25T23:23:40.267Z,39.81
2019-04-25T23:26:19.155Z,40.13
2019-04-25T23:28:52.784Z,40.09
2019-04-25T23:31:25.849Z,39.98
2019-04-25T23:33:57.774Z,40.13
2019-04-25T23:36:29.299Z,40.05
2019-04-25T23:39:00.851Z,39.95
2019-04-25T23:41:35.212Z,40.17
2019-04-25T23:44:07.985Z,40.28
2019-04-25T23:46:39.813Z,40.23
2019-04-25T23:49:12.734Z,40.33
2019-04-25T23:51:44.845Z,40.35
2019-04-25T23:54:17.199Z,40.47
2019-04-25T23:56:48.552Z,40.75
2019-04-25T23:59:20.251Z,40.82
